Time;durP1;ratioP1;P1;durP2;ratioP2;P2;SDS_P1;SDS_P2;PMS_P1;PMS_P2;Temp;Humidity;BMP_temperature;BMP_pressure;BME280_temperature;BME280_humidity;BME280_pressure;Samples;Min_cycle;Max_cycle;Signal;HPM_P1;HPM_P2
2023/06/09 00:01:35;;;;;;;7.65;6.47;;;16.00;99.90;;;;;;5078940;28;20039;-74
2023/06/09 00:04:06;;;;;;;8.57;7.55;;;16.00;99.90;;;;;;5079661;28;20062;-74
2023/06/09 00:06:33;;;;;;;11.10;7.38;;;16.00;99.90;;;;;;5078918;28;20040;-74
2023/06/09 00:08:59;;;;;;;8.20;6.93;;;16.00;99.90;;;;;;5097242;28;20036;-74
2023/06/09 00:11:25;;;;;;;11.65;6.45;;;15.90;99.90;;;;;;5096987;28;20034;-74
2023/06/09 00:13:51;;;;;;;8.07;6.75;;;15.90;99.90;;;;;;5096584;28;20438;-75
2023/06/09 00:16:17;;;;;;;11.10;7.05;;;15.90;99.90;;;;;;5096743;28;20036;-75
2023/06/09 00:18:43;;;;;;;8.20;6.50;;;15.90;99.90;;;;;;5082228;28;20059;-74
2023/06/09 00:21:10;;;;;;;8.95;7.07;;;15.80;99.90;;;;;;5099103;28;20386;-74
2023/06/09 00:23:35;;;;;;;10.00;7.20;;;15.80;99.90;;;;;;5115878;28;20433;-74
2023/06/09 00:26:02;;;;;;;10.32;7.57;;;15.80;99.90;;;;;;5098725;28;20079;-74
2023/06/09 00:28:27;;;;;;;9.57;6.85;;;15.80;99.90;;;;;;5114289;28;20122;-74
2023/06/09 00:30:53;;;;;;;8.02;7.22;;;15.80;99.90;;;;;;5116801;28;20115;-74
2023/06/09 00:33:19;;;;;;;9.80;7.55;;;15.80;99.90;;;;;;5117103;28;20077;-74
2023/06/09 00:35:45;;;;;;;7.43;6.72;;;15.80;99.90;;;;;;5098808;28;20050;-74
2023/06/09 00:38:10;;;;;;;8.32;7.22;;;15.80;99.90;;;;;;5116824;28;20092;-74
2023/06/09 00:40:36;;;;;;;11.77;7.70;;;15.70;99.90;;;;;;5098208;28;20473;-74
2023/06/09 00:43:01;;;;;;;12.52;7.53;;;15.80;99.90;;;;;;5116787;28;20062;-74
2023/06/09 00:45:27;;;;;;;11.68;7.75;;;15.70;99.90;;;;;;5116645;28;20031;-74
2023/06/09 00:47:54;;;;;;;10.95;7.47;;;15.70;99.90;;;;;;5098980;28;20039;-74
2023/06/09 00:50:20;;;;;;;9.32;7.65;;;15.70;99.90;;;;;;5117181;28;20118;-74
2023/06/09 00:52:47;;;;;;;8.05;7.25;;;15.80;99.90;;;;;;5116219;28;20116;-74
2023/06/09 00:55:13;;;;;;;8.30;7.40;;;15.70;99.90;;;;;;5116191;28;20196;-75
2023/06/09 00:57:39;;;;;;;9.00;7.28;;;15.80;99.90;;;;;;5115291;28;20473;-74
2023/06/09 01:00:10;;;;;;;10.82;8.10;;;15.80;99.90;;;;;;5116518;28;20110;-74
2023/06/09 01:02:38;;;;;;;8.98;7.28;;;15.80;99.90;;;;;;5116968;28;20035;-74
2023/06/09 01:05:05;;;;;;;10.48;7.32;;;15.80;99.90;;;;;;5098075;28;20040;-74
2023/06/09 01:07:50;;;;;;;7.25;6.55;;;15.80;99.90;;;;;;5116265;28;20038;-74
2023/06/09 01:10:23;;;;;;;9.82;6.80;;;15.80;99.90;;;;;;5116200;28;20037;-74
2023/06/09 01:13:02;;;;;;;9.10;7.15;;;15.80;99.90;;;;;;5116174;28;20454;-74
2023/06/09 01:15:31;;;;;;;12.25;7.72;;;15.80;99.90;;;;;;5116174;28;20067;-74
2023/06/09 01:18:02;;;;;;;8.82;6.85;;;15.80;99.90;;;;;;5097808;28;20036;-74
2023/06/09 01:21:01;;;;;;;10.85;7.57;;;15.80;99.90;;;;;;5115765;28;20074;-74
2023/06/09 01:23:36;;;;;;;9.55;7.45;;;15.70;99.90;;;;;;5086366;28;20054;-74
2023/06/09 01:26:03;;;;;;;9.13;7.20;;;15.70;99.90;;;;;;5115854;28;20124;-74
2023/06/09 01:28:29;;;;;;;8.35;6.82;;;15.70;99.90;;;;;;5115860;28;20422;-74
2023/06/09 01:30:57;;;;;;;10.60;7.38;;;15.70;99.90;;;;;;5116085;28;20051;-75
2023/06/09 01:33:24;;;;;;;12.68;7.93;;;15.60;99.90;;;;;;5115950;28;20024;-74
2023/06/09 01:35:52;;;;;;;9.32;7.82;;;15.60;99.90;;;;;;5115296;28;20395;-75
2023/06/09 01:38:23;;;;;;;12.50;7.50;;;15.60;99.90;;;;;;5097395;28;20031;-74
2023/06/09 01:40:49;;;;;;;11.27;7.38;;;15.60;99.90;;;;;;5114942;28;20081;-74
2023/06/09 01:43:15;;;;;;;8.82;7.65;;;15.60;99.90;;;;;;5115603;28;20058;-75
2023/06/09 01:45:41;;;;;;;8.88;7.63;;;15.60;99.90;;;;;;5097205;28;20070;-74
2023/06/09 01:48:31;;;;;;;8.75;7.32;;;15.60;99.90;;;;;;5115794;28;20032;-74
2023/06/09 01:50:56;;;;;;;12.38;7.65;;;15.60;99.90;;;;;;5084723;28;20043;-74
2023/06/09 01:53:36;;;;;;;10.38;7.57;;;15.60;99.90;;;;;;5114138;28;20035;-74
2023/06/09 01:56:30;;;;;;;14.23;7.50;;;15.60;99.90;;;;;;5097419;28;20580;-74
2023/06/09 01:59:04;;;;;;;8.73;7.68;;;15.60;99.90;;;;;;5115392;28;20070;-75
2023/06/09 02:01:31;;;;;;;11.07;7.80;;;15.60;99.90;;;;;;5115462;28;20194;-75
2023/06/09 02:03:59;;;;;;;13.23;7.60;;;15.60;99.90;;;;;;5115152;28;20115;-74
2023/06/09 02:06:26;;;;;;;10.35;8.00;;;15.60;99.90;;;;;;5115151;28;20085;-74
2023/06/09 02:08:52;;;;;;;10.77;7.95;;;15.60;99.90;;;;;;5115190;28;20028;-74
2023/06/09 02:11:18;;;;;;;8.93;7.88;;;15.60;99.90;;;;;;5115676;28;20049;-74
2023/06/09 02:13:51;;;;;;;11.90;7.68;;;15.60;99.90;;;;;;5114742;28;20067;-75
2023/06/09 02:16:18;;;;;;;14.73;7.63;;;15.60;99.90;;;;;;5114571;28;20454;-74
2023/06/09 02:18:44;;;;;;;9.95;8.00;;;15.50;99.90;;;;;;5114713;28;20507;-74
2023/06/09 02:21:10;;;;;;;9.98;7.30;;;15.50;99.90;;;;;;5097069;28;20031;-74
2023/06/09 02:23:38;;;;;;;8.63;7.80;;;15.50;99.90;;;;;;5113481;28;20537;-74
2023/06/09 02:26:03;;;;;;;9.15;8.25;;;15.50;99.90;;;;;;5113538;28;20047;-74
2023/06/09 02:28:29;;;;;;;9.70;7.82;;;15.50;99.90;;;;;;5114827;28;20121;-74
2023/06/09 02:30:55;;;;;;;10.13;8.60;;;15.50;99.90;;;;;;5114482;28;20027;-74
2023/06/09 02:33:20;;;;;;;10.32;8.40;;;15.50;99.90;;;;;;5114440;28;20040;-74
2023/06/09 02:35:46;;;;;;;12.77;8.18;;;15.50;99.90;;;;;;5096400;28;20039;-75
2023/06/09 02:38:11;;;;;;;11.63;7.45;;;15.50;99.90;;;;;;5114723;28;20039;-74
2023/06/09 02:40:42;;;;;;;8.55;7.60;;;15.50;99.90;;;;;;5114561;28;20105;-74
2023/06/09 02:43:08;;;;;;;8.90;7.43;;;15.40;99.90;;;;;;5114631;28;20034;-74
2023/06/09 02:45:33;;;;;;;11.55;7.88;;;15.40;99.90;;;;;;5114490;28;20114;-74
2023/06/09 02:47:59;;;;;;;11.27;8.95;;;15.40;99.90;;;;;;5114175;28;20032;-75
2023/06/09 02:50:26;;;;;;;11.00;8.48;;;15.40;99.90;;;;;;5114368;28;20081;-75
2023/06/09 02:52:51;;;;;;;9.77;8.77;;;15.40;99.90;;;;;;5112277;28;20131;-74
2023/06/09 02:55:18;;;;;;;8.32;7.50;;;15.40;99.90;;;;;;5096062;28;20138;-74
2023/06/09 02:57:45;;;;;;;10.52;8.95;;;15.40;99.90;;;;;;5114375;28;20035;-74
2023/06/09 03:00:12;;;;;;;10.00;7.97;;;15.40;99.90;;;;;;5096101;28;20480;-74
2023/06/09 03:02:40;;;;;;;10.63;8.18;;;15.40;99.90;;;;;;5114159;28;20493;-74
2023/06/09 03:05:07;;;;;;;9.68;8.07;;;15.40;99.90;;;;;;5095987;28;20503;-75
2023/06/09 03:07:32;;;;;;;9.05;7.78;;;15.40;99.90;;;;;;5114197;28;20036;-74
2023/06/09 03:09:59;;;;;;;8.93;8.02;;;15.30;99.90;;;;;;5096128;28;20043;-74
2023/06/09 03:12:25;;;;;;;8.70;7.80;;;15.30;99.90;;;;;;5114272;28;20051;-74
2023/06/09 03:14:50;;;;;;;11.00;8.27;;;15.30;99.90;;;;;;5112851;28;20043;-74
2023/06/09 03:17:17;;;;;;;10.90;7.70;;;15.30;99.90;;;;;;5112839;28;20039;-74
2023/06/09 03:19:43;;;;;;;9.02;7.68;;;15.30;99.90;;;;;;5095721;28;20043;-75
2023/06/09 03:22:08;;;;;;;16.92;9.05;;;15.30;99.90;;;;;;5113867;28;20495;-74
2023/06/09 03:24:34;;;;;;;11.45;8.65;;;15.30;99.90;;;;;;5095830;28;20051;-75
2023/06/09 03:27:00;;;;;;;12.27;8.73;;;15.30;99.90;;;;;;5114121;28;20044;-74
2023/06/09 03:29:28;;;;;;;10.80;8.43;;;15.30;99.90;;;;;;5112842;28;20118;-75
2023/06/09 03:31:54;;;;;;;10.48;8.27;;;15.30;99.90;;;;;;5095761;28;20031;-75
2023/06/09 03:34:20;;;;;;;16.20;9.50;;;15.30;99.90;;;;;;5095764;28;20028;-74
2023/06/09 03:36:46;;;;;;;12.98;8.63;;;15.30;99.90;;;;;;5112641;28;20031;-74
2023/06/09 03:39:12;;;;;;;9.88;8.73;;;15.30;99.90;;;;;;5112659;28;20081;-74
2023/06/09 03:41:37;;;;;;;14.82;9.25;;;15.30;99.90;;;;;;5113886;28;20032;-74
2023/06/09 03:44:03;;;;;;;10.32;8.60;;;15.30;99.90;;;;;;5113581;28;20067;-75
2023/06/09 03:46:29;;;;;;;10.63;8.05;;;15.40;99.90;;;;;;5095572;28;20131;-75
2023/06/09 03:48:54;;;;;;;10.88;9.40;;;15.40;99.90;;;;;;5113932;28;20421;-74
2023/06/09 03:51:20;;;;;;;9.27;8.38;;;15.40;99.90;;;;;;5112593;28;20027;-74
2023/06/09 03:53:46;;;;;;;11.95;10.20;;;15.40;99.90;;;;;;5114060;28;20035;-74
2023/06/09 03:56:12;;;;;;;10.73;8.20;;;15.50;99.90;;;;;;5113695;28;20473;-75
2023/06/09 03:58:38;;;;;;;10.52;8.55;;;15.50;99.90;;;;;;5113016;28;20097;-74
2023/06/09 04:01:04;;;;;;;9.15;8.25;;;15.50;99.90;;;;;;5113810;28;20102;-75
2023/06/09 04:03:30;;;;;;;9.35;8.40;;;15.60;99.90;;;;;;5114334;28;20105;-75
2023/06/09 04:05:55;;;;;;;9.13;8.23;;;15.60;99.90;;;;;;5117425;28;20038;-74
2023/06/09 04:08:21;;;;;;;8.75;7.78;;;15.70;99.90;;;;;;5117484;28;20396;-74
2023/06/09 04:10:47;;;;;;;11.65;8.63;;;15.70;99.90;;;;;;5117574;28;20024;-74
2023/06/09 04:13:13;;;;;;;11.00;7.85;;;15.70;99.90;;;;;;5116042;28;20036;-75
2023/06/09 04:15:39;;;;;;;8.93;8.02;;;15.70;99.90;;;;;;5117231;28;20032;-75
2023/06/09 04:18:05;;;;;;;9.85;7.65;;;15.80;99.90;;;;;;5117253;28;20119;-75
2023/06/09 04:20:30;;;;;;;8.63;7.57;;;15.80;99.90;;;;;;5117903;28;20079;-74
2023/06/09 04:22:56;;;;;;;9.35;7.38;;;15.90;99.90;;;;;;5115768;28;20039;-75
2023/06/09 04:25:25;;;;;;;9.88;7.20;;;15.90;99.90;;;;;;5115861;28;20126;-76
2023/06/09 04:27:55;;;;;;;13.13;7.28;;;15.90;99.90;;;;;;5117018;28;20050;-75
2023/06/09 04:30:25;;;;;;;9.27;7.43;;;16.00;99.90;;;;;;5098959;28;20058;-74
2023/06/09 04:32:52;;;;;;;7.97;7.18;;;16.00;99.90;;;;;;5098738;28;20074;-77
2023/06/09 04:35:19;;;;;;;9.80;7.15;;;16.00;99.90;;;;;;5116798;28;20040;-75
2023/06/09 04:37:45;;;;;;;10.63;7.22;;;16.10;99.90;;;;;;5117032;28;20028;-74
2023/06/09 04:40:14;;;;;;;7.50;6.75;;;16.10;99.90;;;;;;5116790;28;20062;-76
2023/06/09 04:42:39;;;;;;;9.75;7.10;;;16.20;99.90;;;;;;5116766;28;20023;-78
2023/06/09 04:45:06;;;;;;;8.23;6.88;;;16.30;99.90;;;;;;5116801;28;20457;-77
2023/06/09 04:47:31;;;;;;;9.55;6.90;;;16.30;99.90;;;;;;5117254;28;20047;-78
2023/06/09 04:49:57;;;;;;;7.88;6.97;;;16.40;99.90;;;;;;5115606;28;20027;-77
2023/06/09 04:52:23;;;;;;;9.20;6.88;;;16.40;99.90;;;;;;5098432;28;20054;-76
2023/06/09 04:54:52;;;;;;;7.75;6.53;;;16.50;99.90;;;;;;5098276;28;20112;-77
2023/06/09 04:57:18;;;;;;;7.82;6.13;;;16.60;99.90;;;;;;5116607;28;20122;-75
2023/06/09 04:59:45;;;;;;;8.95;6.15;;;16.60;99.90;;;;;;5098291;28;20493;-76
2023/06/09 05:02:11;;;;;;;10.52;6.13;;;16.70;99.90;;;;;;5116490;28;20518;-75
2023/06/09 05:04:36;;;;;;;7.75;5.65;;;16.80;99.90;;;;;;5116364;28;20031;-75
2023/06/09 05:07:03;;;;;;;6.07;5.40;;;16.80;99.90;;;;;;5115129;28;20081;-76
2023/06/09 05:09:29;;;;;;;6.65;5.80;;;16.90;99.90;;;;;;5116463;28;20423;-75
2023/06/09 05:11:55;;;;;;;8.43;5.45;;;16.90;99.90;;;;;;5116247;28;20031;-75
2023/06/09 05:14:21;;;;;;;8.88;5.82;;;17.00;99.90;;;;;;5115658;28;20040;-76
2023/06/09 05:16:46;;;;;;;7.32;5.53;;;17.00;99.90;;;;;;5097922;28;20096;-76
2023/06/09 05:19:12;;;;;;;9.77;5.40;;;17.00;99.90;;;;;;5116044;28;20590;-76
2023/06/09 05:21:38;;;;;;;7.82;5.72;;;17.00;99.90;;;;;;5116076;28;20106;-76
2023/06/09 05:24:05;;;;;;;7.10;5.75;;;17.00;99.90;;;;;;5115732;28;20353;-77
2023/06/09 05:26:31;;;;;;;6.72;5.93;;;17.00;99.90;;;;;;5115995;28;20031;-78
2023/06/09 05:28:56;;;;;;;6.63;5.10;;;17.00;99.90;;;;;;5115755;28;20085;-75
2023/06/09 05:31:23;;;;;;;5.30;4.80;;;17.00;99.90;;;;;;5114505;28;20032;-79
2023/06/09 05:33:49;;;;;;;9.02;5.35;;;17.00;99.90;;;;;;5097533;28;20032;-76
2023/06/09 05:36:14;;;;;;;5.65;5.10;;;17.10;99.90;;;;;;5097397;28;20516;-75
2023/06/09 05:38:40;;;;;;;9.27;5.05;;;17.10;99.90;;;;;;5115564;28;20031;-74
2023/06/09 05:41:06;;;;;;;5.78;5.18;;;17.10;99.90;;;;;;5115840;28;20380;-75
2023/06/09 05:43:31;;;;;;;6.32;5.05;;;17.10;99.90;;;;;;5115392;28;20461;-74
2023/06/09 05:45:57;;;;;;;4.70;4.30;;;17.20;99.90;;;;;;5114280;28;20122;-74
2023/06/09 05:48:23;;;;;;;5.13;4.63;;;17.20;99.90;;;;;;5114210;28;20032;-75
2023/06/09 05:50:49;;;;;;;6.07;4.50;;;17.20;99.90;;;;;;5114178;28;20530;-77
2023/06/09 05:53:17;;;;;;;11.60;5.10;;;17.30;99.90;;;;;;5115362;28;20023;-74
2023/06/09 05:55:47;;;;;;;5.22;4.70;;;17.30;99.90;;;;;;5115163;28;20386;-75
2023/06/09 05:58:14;;;;;;;4.80;4.32;;;17.30;99.90;;;;;;5114864;28;20439;-76
2023/06/09 06:00:40;;;;;;;4.78;4.38;;;17.40;99.90;;;;;;5115229;28;20044;-76
2023/06/09 06:03:08;;;;;;;6.25;5.18;;;17.40;99.90;;;;;;5115218;28;20027;-62
2023/06/09 06:05:33;;;;;;;4.70;4.23;;;17.40;99.90;;;;;;5115174;28;20396;-62
2023/06/09 06:08:00;;;;;;;4.85;4.45;;;17.40;99.90;;;;;;5114865;28;20024;-61
2023/06/09 06:10:26;;;;;;;5.95;4.35;;;17.50;99.90;;;;;;5115932;28;20039;-61
2023/06/09 06:12:52;;;;;;;7.75;4.53;;;17.60;99.90;;;;;;5114993;28;20396;-60
2023/06/09 06:15:18;;;;;;;5.50;4.60;;;17.60;99.90;;;;;;5115069;28;20088;-61
2023/06/09 06:17:44;;;;;;;7.38;4.90;;;17.60;99.90;;;;;;5114241;28;20445;-62
2023/06/09 06:20:11;;;;;;;5.75;4.72;;;17.60;99.90;;;;;;5114367;28;20514;-62
2023/06/09 06:22:38;;;;;;;6.32;4.90;;;17.70;99.90;;;;;;5114788;28;20038;-74
2023/06/09 06:25:04;;;;;;;5.28;4.78;;;17.60;99.90;;;;;;5096572;28;20093;-74
2023/06/09 06:27:29;;;;;;;6.57;4.90;;;17.50;99.90;;;;;;5096456;28;20032;-74
2023/06/09 06:29:55;;;;;;;7.03;4.75;;;17.50;99.90;;;;;;5114710;28;20114;-74
2023/06/09 06:32:21;;;;;;;5.40;4.90;;;17.50;99.90;;;;;;5115063;28;20495;-74
2023/06/09 06:34:46;;;;;;;7.28;4.88;;;17.40;99.90;;;;;;5114311;28;20484;-74
2023/06/09 06:37:12;;;;;;;5.95;4.32;;;17.40;99.90;;;;;;5114498;28;20097;-74
2023/06/09 06:39:37;;;;;;;7.45;4.78;;;17.50;99.90;;;;;;5113273;28;20028;-74
2023/06/09 06:42:04;;;;;;;5.18;4.68;;;17.50;99.90;;;;;;5114208;28;20101;-76
2023/06/09 06:44:29;;;;;;;5.47;4.50;;;17.50;99.90;;;;;;5114389;28;20027;-75
2023/06/09 06:46:55;;;;;;;6.28;4.30;;;17.50;99.90;;;;;;5114477;28;20035;-76
2023/06/09 06:49:21;;;;;;;4.68;4.07;;;17.50;99.90;;;;;;5114504;28;20384;-74
2023/06/09 06:51:46;;;;;;;5.22;4.70;;;17.50;99.90;;;;;;5114611;28;20456;-75
2023/06/09 06:54:14;;;;;;;7.47;4.10;;;17.50;99.90;;;;;;5096644;28;20035;-74
2023/06/09 06:56:40;;;;;;;7.15;4.70;;;17.60;99.90;;;;;;5114371;28;20031;-75
2023/06/09 06:59:05;;;;;;;6.57;4.75;;;17.60;99.90;;;;;;5114301;28;20365;-78
2023/06/09 07:01:32;;;;;;;6.13;3.85;;;17.70;99.90;;;;;;5112835;28;20035;-77
2023/06/09 07:03:58;;;;;;;4.40;4.00;;;17.70;99.90;;;;;;5114695;28;20023;-78
2023/06/09 07:06:23;;;;;;;5.00;3.65;;;17.80;99.90;;;;;;5113314;28;20042;-77
2023/06/09 07:08:50;;;;;;;4.88;4.40;;;17.80;99.90;;;;;;5114277;28;20031;-78
2023/06/09 07:11:16;;;;;;;4.95;4.28;;;17.80;99.90;;;;;;5114297;28;20027;-76
2023/06/09 07:13:41;;;;;;;4.07;3.78;;;17.80;99.90;;;;;;5112829;28;20038;-74
2023/06/09 07:16:07;;;;;;;8.77;4.25;;;17.90;99.90;;;;;;5113708;28;20036;-60
2023/06/09 07:18:33;;;;;;;4.07;3.67;;;17.90;99.90;;;;;;5114210;28;20434;-75
2023/06/09 07:20:59;;;;;;;3.92;3.63;;;17.90;99.90;;;;;;5114116;28;20036;-75
2023/06/09 07:23:24;;;;;;;5.43;3.83;;;17.80;99.90;;;;;;5095800;28;20088;-71
2023/06/09 07:25:50;;;;;;;4.10;3.80;;;17.80;99.90;;;;;;5095361;28;20473;-83
2023/06/09 07:28:15;;;;;;;5.35;4.28;;;17.80;99.90;;;;;;5113919;28;20059;-75
2023/06/09 07:30:41;;;;;;;5.82;4.75;;;17.80;99.90;;;;;;5114001;28;20043;-75
2023/06/09 07:33:08;;;;;;;4.18;3.88;;;17.90;99.90;;;;;;5113952;28;20028;-75
2023/06/09 07:35:34;;;;;;;3.88;3.58;;;17.90;99.90;;;;;;5095702;28;20415;-74
2023/06/09 07:38:01;;;;;;;5.03;3.72;;;17.90;99.90;;;;;;5114927;28;20039;-74
2023/06/09 07:40:26;;;;;;;7.10;4.25;;;18.00;99.90;;;;;;5117966;28;20023;-75
2023/06/09 07:42:52;;;;;;;4.30;3.80;;;18.00;99.90;;;;;;5118417;28;20111;-75
2023/06/09 07:45:18;;;;;;;4.93;3.83;;;18.10;99.90;;;;;;5117742;28;20089;-75
2023/06/09 07:47:44;;;;;;;4.95;4.30;;;18.20;99.90;;;;;;5117809;28;20093;-75
2023/06/09 07:50:10;;;;;;;4.88;4.32;;;18.20;99.90;;;;;;5099379;28;20472;-76
2023/06/09 07:52:39;;;;;;;4.07;3.67;;;18.20;99.90;;;;;;5099245;28;20036;-75
2023/06/09 07:55:06;;;;;;;3.85;3.55;;;18.30;99.90;;;;;;5117532;28;20039;-75
2023/06/09 07:57:32;;;;;;;5.28;3.78;;;18.30;99.90;;;;;;5117596;28;20039;-75
2023/06/09 07:59:58;;;;;;;4.57;3.88;;;18.30;99.90;;;;;;5117312;28;20027;-75
2023/06/09 08:02:23;;;;;;;4.93;3.38;;;18.30;99.90;;;;;;5099274;28;20127;-75
2023/06/09 08:04:49;;;;;;;4.10;3.40;;;18.30;99.90;;;;;;5117424;28;20035;-75
2023/06/09 08:07:15;;;;;;;5.20;3.70;;;18.30;99.90;;;;;;5117211;28;20065;-75
2023/06/09 08:09:40;;;;;;;4.07;3.67;;;18.30;99.90;;;;;;5099689;28;20036;-75
2023/06/09 08:12:06;;;;;;;4.80;3.55;;;18.30;99.90;;;;;;5117370;28;20031;-76
2023/06/09 08:14:32;;;;;;;5.18;3.45;;;18.40;99.90;;;;;;5117241;28;20028;-75
2023/06/09 08:16:58;;;;;;;9.18;3.67;;;18.40;99.90;;;;;;5117202;28;20031;-75
2023/06/09 08:19:24;;;;;;;3.35;3.05;;;18.50;99.90;;;;;;5115396;28;20044;-75
2023/06/09 08:21:50;;;;;;;5.40;3.65;;;18.60;99.90;;;;;;5098887;28;20028;-75
2023/06/09 08:24:16;;;;;;;3.70;3.08;;;18.70;99.90;;;;;;5117092;28;20110;-75
2023/06/09 08:26:43;;;;;;;3.63;3.33;;;18.90;99.90;;;;;;5116794;28;20046;-75
2023/06/09 08:29:10;;;;;;;4.65;3.53;;;19.10;99.90;;;;;;5117111;28;20092;-75
2023/06/09 08:31:37;;;;;;;4.40;3.40;;;19.30;99.90;;;;;;5116971;28;20052;-75
2023/06/09 08:34:03;;;;;;;6.60;3.72;;;19.50;99.90;;;;;;5116845;28;20027;-75
2023/06/09 08:36:28;;;;;;;4.15;3.80;;;19.70;99.90;;;;;;5116702;28;20044;-75
2023/06/09 08:38:54;;;;;;;5.47;3.40;;;19.70;99.90;;;;;;5116952;28;20027;-75
2023/06/09 08:41:24;;;;;;;7.53;3.78;;;19.70;99.90;;;;;;5098500;28;20066;-75
2023/06/09 08:43:50;;;;;;;4.43;3.40;;;19.60;99.90;;;;;;5098839;28;20036;-75
2023/06/09 08:46:16;;;;;;;4.53;2.92;;;19.60;99.90;;;;;;5116414;28;20492;-75
2023/06/09 08:48:53;;;;;;;3.97;3.67;;;19.70;99.90;;;;;;5116317;28;20074;-75
2023/06/09 08:51:21;;;;;;;5.05;3.30;;;19.70;99.90;;;;;;5116045;28;20031;-75
2023/06/09 08:53:52;;;;;;;5.28;3.35;;;19.60;99.90;;;;;;5116499;28;20027;-75
2023/06/09 08:56:21;;;;;;;4.05;3.65;;;19.40;99.90;;;;;;5116467;28;20064;-75
2023/06/09 08:58:47;;;;;;;4.65;3.40;;;19.40;99.90;;;;;;5116505;28;20110;-75
2023/06/09 09:01:14;;;;;;;5.72;4.15;;;19.40;99.90;;;;;;5114918;28;20039;-75
2023/06/09 09:03:40;;;;;;;5.50;3.80;;;19.40;99.90;;;;;;5116791;28;20036;-76
2023/06/09 09:06:06;;;;;;;5.43;3.85;;;19.40;99.90;;;;;;5115206;28;20476;-75
2023/06/09 09:08:32;;;;;;;4.57;3.58;;;19.80;99.90;;;;;;5115951;28;20392;-75
2023/06/09 09:10:57;;;;;;;4.68;3.95;;;19.80;99.90;;;;;;5116133;28;20028;-75
2023/06/09 09:13:30;;;;;;;4.10;3.50;;;19.90;99.90;;;;;;5097925;28;20034;-75
2023/06/09 09:15:58;;;;;;;4.43;4.03;;;20.10;99.90;;;;;;5116012;28;20031;-75
2023/06/09 09:18:28;;;;;;;4.43;4.03;;;20.20;99.90;;;;;;5115812;28;20024;-76
2023/06/09 09:20:55;;;;;;;9.52;4.00;;;20.50;99.90;;;;;;5116141;28;20082;-75
2023/06/09 09:23:31;;;;;;;4.75;3.80;;;20.60;99.90;;;;;;5115716;28;20385;-75
2023/06/09 09:26:03;;;;;;;6.22;4.80;;;20.60;99.90;;;;;;5097657;28;20044;-75
2023/06/09 09:28:39;;;;;;;4.50;4.10;;;20.60;99.90;;;;;;5115923;28;20024;-76
2023/06/09 09:31:08;;;;;;;6.00;3.90;;;20.90;99.90;;;;;;5115774;28;20061;-75
2023/06/09 09:33:36;;;;;;;4.47;4.07;;;21.10;99.90;;;;;;5097418;28;20036;-75
2023/06/09 09:36:03;;;;;;;4.45;4.05;;;21.40;99.90;;;;;;5097136;28;20039;-76
2023/06/09 09:38:31;;;;;;;4.32;3.92;;;21.80;99.90;;;;;;5097343;28;20127;-75
2023/06/09 09:41:00;;;;;;;4.60;4.20;;;21.80;99.90;;;;;;5115605;28;20144;-76
2023/06/09 09:43:27;;;;;;;8.35;4.25;;;21.80;99.90;;;;;;5115610;28;20039;-76
2023/06/09 09:45:55;;;;;;;4.60;4.20;;;22.00;99.90;;;;;;5116004;28;20067;-76
2023/06/09 09:48:23;;;;;;;6.13;4.15;;;21.90;99.90;;;;;;5115492;28;20039;-76
2023/06/09 09:50:51;;;;;;;3.95;3.55;;;22.00;99.90;;;;;;5115182;28;20376;-76
2023/06/09 09:53:21;;;;;;;6.45;4.55;;;22.20;99.90;;;;;;5114172;28;20028;-76
2023/06/09 09:55:47;;;;;;;5.15;4.57;;;22.30;99.90;;;;;;5115089;28;20035;-75
2023/06/09 09:58:14;;;;;;;6.43;4.30;;;22.30;99.90;;;;;;5115467;28;20031;-74
2023/06/09 10:00:46;;;;;;;4.40;4.00;;;22.70;99.90;;;;;;5114545;28;20477;-73
2023/06/09 10:03:17;;;;;;;4.78;4.38;;;23.40;99.90;;;;;;5115026;28;20028;-73
2023/06/09 10:05:46;;;;;;;5.43;3.95;;;23.90;99.90;;;;;;5113866;28;20455;-76
2023/06/09 10:08:21;;;;;;;6.18;4.60;;;24.50;99.90;;;;;;5115079;28;20472;-76
2023/06/09 10:10:49;;;;;;;5.00;4.50;;;25.00;99.90;;;;;;5096945;28;20434;-76
2023/06/09 10:13:15;;;;;;;4.93;4.00;;;25.20;99.90;;;;;;5115010;28;20028;-77
2023/06/09 10:15:43;;;;;;;4.22;3.88;;;25.10;99.30;;;;;;5114890;28;20043;-76
2023/06/09 10:18:10;;;;;;;5.95;4.00;;;24.80;99.80;;;;;;5114573;28;20093;-74
2023/06/09 10:20:36;;;;;;;4.97;3.95;;;24.50;99.90;;;;;;5114339;28;20049;-74
2023/06/09 10:23:04;;;;;;;8.60;4.45;;;24.40;99.90;;;;;;5114425;28;20031;-76
2023/06/09 10:25:30;;;;;;;6.90;4.60;;;24.40;99.90;;;;;;5114439;28;20392;-76
2023/06/09 10:27:56;;;;;;;6.50;4.50;;;24.50;99.90;;;;;;5114758;28;20046;-74
2023/06/09 10:30:22;;;;;;;7.20;4.75;;;24.20;99.90;;;;;;5096511;28;20039;-76
2023/06/09 10:33:00;;;;;;;5.53;5.13;;;23.60;99.90;;;;;;5096079;28;20027;-80
2023/06/09 10:35:28;;;;;;;4.88;4.47;;;23.30;99.90;;;;;;5096625;28;20180;-75
2023/06/09 10:37:56;;;;;;;5.15;4.53;;;23.40;99.90;;;;;;5113298;28;20068;-75
2023/06/09 10:40:30;;;;;;;5.07;4.57;;;23.90;99.90;;;;;;5096216;28;20035;-75
2023/06/09 10:43:22;;;;;;;6.70;4.05;;;24.10;99.90;;;;;;5096228;28;20037;-75
2023/06/09 10:45:50;;;;;;;6.93;4.10;;;24.20;99.90;;;;;;5096911;28;20036;-75
2023/06/09 10:48:46;;;;;;;4.53;4.18;;;23.80;99.90;;;;;;5113118;28;20023;-76
2023/06/09 10:51:26;;;;;;;5.22;4.72;;;23.60;99.90;;;;;;5112928;28;20044;-73
2023/06/09 10:54:07;;;;;;;5.22;4.72;;;23.10;99.90;;;;;;5114154;28;20031;-74
2023/06/09 10:56:35;;;;;;;5.75;4.38;;;23.00;99.90;;;;;;5114023;28;20122;-74
2023/06/09 10:59:01;;;;;;;5.28;4.65;;;22.90;99.90;;;;;;5114218;28;20032;-74
2023/06/09 11:01:26;;;;;;;8.15;5.32;;;22.90;99.90;;;;;;5112922;28;20042;-74
2023/06/09 11:03:52;;;;;;;4.60;4.20;;;22.80;99.90;;;;;;5112552;28;20126;-74
2023/06/09 11:06:17;;;;;;;5.38;4.40;;;22.90;99.90;;;;;;5114301;28;20112;-74
2023/06/09 11:09:09;;;;;;;8.07;5.15;;;23.00;99.90;;;;;;5114010;28;20035;-69
2023/06/09 11:12:00;;;;;;;6.45;4.78;;;22.90;99.90;;;;;;5114185;28;20127;-69
2023/06/09 11:14:51;;;;;;;5.43;4.90;;;23.10;99.90;;;;;;5110141;28;20032;-68
2023/06/09 11:17:19;;;;;;;5.30;4.80;;;23.30;99.90;;;;;;5105951;28;20040;-68
2023/06/09 11:19:45;;;;;;;5.82;4.68;;;23.40;99.90;;;;;;5113948;28;20100;-65
2023/06/09 11:22:12;;;;;;;6.25;5.28;;;23.60;99.90;;;;;;5113869;28;20075;-67
2023/06/09 11:24:51;;;;;;;6.30;4.82;;;23.80;99.90;;;;;;5114126;28;20039;-66
2023/06/09 11:27:21;;;;;;;6.55;5.00;;;23.80;99.90;;;;;;5095683;28;20063;-67
2023/06/09 11:30:08;;;;;;;5.35;4.85;;;23.90;99.90;;;;;;5113987;28;20092;-69
2023/06/09 11:32:54;;;;;;;5.05;4.55;;;24.20;99.90;;;;;;5113502;28;20112;-68
2023/06/09 11:35:22;;;;;;;9.65;5.28;;;24.70;99.90;;;;;;5114010;28;20040;-70
2023/06/09 11:37:58;;;;;;;4.85;4.50;;;25.10;99.90;;;;;;5112540;28;20038;-69
2023/06/09 11:40:29;;;;;;;6.38;5.13;;;25.40;98.70;;;;;;5112516;28;20036;-69
2023/06/09 11:42:56;;;;;;;6.05;5.10;;;25.40;97.10;;;;;;5095704;28;20031;-69
2023/06/09 11:45:32;;;;;;;5.50;5.00;;;25.00;97.50;;;;;;5114320;28;20122;-69
2023/06/09 11:47:59;;;;;;;5.65;5.15;;;25.00;97.70;;;;;;5113717;28;20027;-75
2023/06/09 11:50:35;;;;;;;5.85;4.90;;;24.90;97.90;;;;;;5113327;28;20434;-74
2023/06/09 11:53:10;;;;;;;7.07;5.03;;;24.80;98.00;;;;;;5096069;28;20032;-75
2023/06/09 11:55:35;;;;;;;6.30;5.43;;;24.60;97.50;;;;;;5113154;28;20161;-75
2023/06/09 11:58:01;;;;;;;7.00;5.55;;;23.90;98.80;;;;;;5114106;28;20115;-75
2023/06/09 12:00:28;;;;;;;8.05;5.75;;;23.60;99.50;;;;;;5113971;28;20032;-74
2023/06/09 12:02:57;;;;;;;6.45;5.47;;;23.60;99.90;;;;;;5113728;28;20480;-74
2023/06/09 12:05:23;;;;;;;;;;;23.50;99.90;;;;;;5112630;28;20503;-72
2023/06/09 12:07:51;;;;;;;5.40;5.00;;;23.70;99.90;;;;;;5112205;28;19903;-72
2023/06/09 12:10:22;;;;;;;6.00;5.40;;;23.90;99.90;;;;;;5113502;28;20112;-72
2023/06/09 12:12:50;;;;;;;5.35;4.85;;;24.10;99.80;;;;;;5113541;28;20119;-71
2023/06/09 12:15:17;;;;;;;6.07;5.47;;;24.00;99.50;;;;;;5095080;28;20040;-73
2023/06/09 12:17:45;;;;;;;7.80;5.10;;;23.80;99.90;;;;;;5113288;28;20028;-72
2023/06/09 12:20:26;;;;;;;7.35;5.63;;;23.70;99.90;;;;;;5113029;28;20123;-72
2023/06/09 12:23:12;;;;;;;7.13;4.65;;;23.80;99.90;;;;;;5113101;28;20545;-72
2023/06/09 12:25:40;;;;;;;5.72;5.32;;;23.90;99.90;;;;;;5116956;28;20024;-72
2023/06/09 12:28:17;;;;;;;9.50;6.38;;;24.30;99.90;;;;;;5098706;28;20034;-72
2023/06/09 12:30:48;;;;;;;7.70;4.93;;;24.60;99.00;;;;;;5116877;28;20031;-73
2023/06/09 12:33:22;;;;;;;5.65;5.00;;;24.60;99.60;;;;;;5098732;28;20472;-72
2023/06/09 12:35:49;;;;;;;6.32;5.53;;;24.70;98.80;;;;;;5116527;28;20044;-72
2023/06/09 12:38:20;;;;;;;5.35;4.85;;;24.60;98.20;;;;;;5116856;28;20495;-73
2023/06/09 12:40:49;;;;;;;5.55;5.05;;;24.80;98.90;;;;;;5116605;28;20425;-75
2023/06/09 12:43:19;;;;;;;5.78;5.07;;;24.90;97.70;;;;;;5116727;28;20032;-76
2023/06/09 12:45:49;;;;;;;7.63;5.13;;;24.80;98.70;;;;;;5098353;28;20046;-75
2023/06/09 12:48:16;;;;;;;5.93;5.40;;;24.80;98.40;;;;;;5098306;28;20028;-74
2023/06/09 12:50:42;;;;;;;6.82;5.60;;;24.80;98.30;;;;;;5116649;28;20023;-74